Terminal Aerodrome Forecast
Issued by NWS Shreveport, LA

Home | Current Version | Previous Version | Text Only | Print | Product List | Glossary On
Versions: 1 2 3 4 5 6 7 8 9 10 11 12 13
000
FTUS44 KSHV 152300 RRA
TAFLFK
TAF
KLFK 152341Z 1600/1624 03005KT P6SM SCT035 BKN250
      TEMPO 1609/1613 4SM BR
     FM161500 00000KT P6SM BKN035 OVC250
     FM161800 VRB04KT P6SM -SHRA OVC050=

USA.gov is the U.S. government's official web portal to all federal, state and local government web resources and services.